Time;durP1;ratioP1;P1;durP2;ratioP2;P2;SDS_P1;SDS_P2;PMS_P1;PMS_P2;Temp;Humidity;BMP_temperature;BMP_pressure;BME280_temperature;BME280_humidity;BME280_pressure;Samples;Min_cycle;Max_cycle;Signal;HPM_P1;HPM_P2
2023/04/29 00:00:17;;;;;;;40.10;18.90;;;;;;;-145.18;100.00;46662.34;4986701;28;20376;-70
2023/04/29 00:02:43;;;;;;;39.93;18.90;;;;;;;-145.18;100.00;46664.31;4990115;28;20043;-71
2023/04/29 00:05:09;;;;;;;40.53;20.80;;;;;;;-145.18;100.00;46668.22;4990374;28;20030;-71
2023/04/29 00:07:35;;;;;;;39.83;19.87;;;;;;;-145.18;100.00;46662.34;4990353;28;20062;-71
2023/04/29 00:10:01;;;;;;;45.37;20.67;;;;;;;-145.18;100.00;46664.31;4980954;28;20130;-71
2023/04/29 00:12:27;;;;;;;39.93;20.93;;;;;;;-145.18;100.00;46670.16;4974785;28;20904;-71
2023/04/29 00:14:52;;;;;;;48.70;21.97;;;;;;;-145.18;100.00;46664.31;4991715;28;20041;-71
2023/04/29 00:17:18;;;;;;;45.43;20.50;;;;;;;-145.18;100.00;46668.22;4994621;28;20272;-71
2023/04/29 00:19:44;;;;;;;46.70;20.23;;;;;;;-145.18;100.00;46668.22;4994720;28;20026;-71
2023/04/29 00:22:09;;;;;;;47.50;22.83;;;;;;;-145.18;100.00;46666.25;4977886;28;20022;-71
2023/04/29 00:24:35;;;;;;;48.80;22.13;;;;;;;-145.18;100.00;46668.22;4975121;28;20277;-71
2023/04/29 00:27:01;;;;;;;68.10;19.83;;;;;;;-145.18;100.00;46668.22;4974826;28;20043;-71
2023/04/29 00:29:27;;;;;;;49.60;22.53;;;;;;;-145.18;100.00;46668.22;4978659;28;20023;-71
2023/04/29 00:31:52;;;;;;;52.97;23.27;;;;;;;-145.18;100.00;46668.22;4968012;28;20665;-71
2023/04/29 00:34:18;;;;;;;57.77;25.00;;;;;;;-145.18;100.00;46668.22;4994311;28;20034;-71
2023/04/29 00:36:43;;;;;;;47.80;23.20;;;;;;;-145.18;100.00;46666.25;4976362;28;20161;-71
2023/04/29 00:39:08;;;;;;;52.67;21.87;;;;;;;-145.18;100.00;46664.31;4994172;28;20081;-71
2023/04/29 00:41:34;;;;;;;43.07;19.90;;;;;;;-145.18;100.00;46668.22;4993852;28;20545;-71
2023/04/29 00:44:00;;;;;;;54.33;22.23;;;;;;;-145.18;100.00;46666.25;4993871;28;20113;-71
2023/04/29 00:46:26;;;;;;;49.33;21.20;;;;;;;-145.18;100.00;46670.16;4994035;28;20042;-71
2023/04/29 00:48:51;;;;;;;49.50;21.40;;;;;;;-145.18;100.00;46664.31;4985693;28;20030;-70
2023/04/29 00:51:17;;;;;;;52.70;20.70;;;;;;;-145.18;100.00;46668.22;4993654;28;20296;-70
2023/04/29 00:53:42;;;;;;;55.50;24.40;;;;;;;-145.18;100.00;46668.22;4993966;28;20030;-70
2023/04/29 00:56:09;;;;;;;47.13;21.20;;;;;;;-145.18;100.00;46666.25;4993582;28;20407;-71
2023/04/29 00:58:35;;;;;;;56.43;23.40;;;;;;;-145.18;100.00;46668.22;4993752;28;20033;-71
2023/04/29 01:01:02;;;;;;;46.20;21.33;;;;;;;-145.18;100.00;46664.31;4993313;28;20287;-70
2023/04/29 01:03:29;;;;;;;48.57;21.80;;;;;;;-145.18;100.00;46672.13;4993606;28;20058;-70
2023/04/29 01:06:36;;;;;;;54.30;23.23;;;;;;;-145.18;100.00;46664.31;4975945;28;20299;-70
2023/04/29 01:09:34;;;;;;;54.67;23.87;;;;;;;-145.18;100.00;46664.31;4991619;28;20291;-70
2023/04/29 01:12:15;;;;;;;44.63;17.17;;;;;;;-145.18;100.00;46666.25;4980968;28;20346;-70
2023/04/29 01:14:47;;;;;;;49.30;23.33;;;;;;;-145.18;100.00;46668.22;4993475;28;20290;-71
2023/04/29 01:17:18;;;;;;;47.90;23.07;;;;;;;-145.18;100.00;46670.16;4993010;28;20260;-71
2023/04/29 01:19:47;;;;;;;58.03;21.27;;;;;;;-145.18;100.00;46668.22;4993494;28;20291;-71
2023/04/29 01:22:13;;;;;;;61.73;24.43;;;;;;;-145.18;100.00;46668.22;4971498;28;20272;-71
2023/04/29 01:24:39;;;;;;;45.00;20.60;;;;;;;-145.18;100.00;46668.22;4986985;28;20702;-70
2023/04/29 01:27:28;;;;;;;47.33;21.37;;;;;;;-145.18;100.00;46672.13;4976298;28;20053;-71
2023/04/29 01:30:11;;;;;;;55.37;24.20;;;;;;;-145.18;100.00;46664.31;4993257;28;20096;-71
2023/04/29 01:32:46;;;;;;;40.13;17.83;;;;;;;-145.18;100.00;46672.13;4992768;28;20304;-70
2023/04/29 01:35:21;;;;;;;53.60;23.37;;;;;;;-145.18;100.00;46666.25;4993274;28;20271;-71
2023/04/29 01:38:08;;;;;;;50.47;23.20;;;;;;;-145.18;100.00;46677.97;4978739;28;20765;-71
2023/04/29 01:40:40;;;;;;;58.73;25.33;;;;;;;-145.18;100.00;46668.22;4973826;28;20038;-70
2023/04/29 01:43:10;;;;;;;51.87;22.83;;;;;;;-145.18;100.00;46670.16;4972887;28;20261;-71
2023/04/29 01:45:40;;;;;;;50.27;22.00;;;;;;;-145.18;100.00;46674.06;4973667;28;20749;-71
2023/04/29 01:48:06;;;;;;;53.63;24.23;;;;;;;-145.18;100.00;46672.13;4973745;28;20646;-70
2023/04/29 01:50:31;;;;;;;57.80;23.17;;;;;;;-145.18;100.00;46672.13;4981242;28;20296;-70
2023/04/29 01:52:57;;;;;;;47.13;23.10;;;;;;;-145.18;100.00;46672.13;4992320;28;20648;-70
2023/04/29 01:55:22;;;;;;;52.17;20.80;;;;;;;-145.18;100.00;46666.25;4992556;28;20040;-70
2023/04/29 01:57:48;;;;;;;62.37;23.03;;;;;;;-145.18;100.00;46668.22;4992295;28;20109;-70
2023/04/29 02:03:11;;;;;;;60.20;24.47;;;;;;;-145.18;100.00;46666.25;5025388;23;20051;-71
2023/04/29 02:05:37;;;;;;;57.03;23.60;;;;;;;-145.18;100.00;46668.22;4961778;28;20650;-71
2023/04/29 02:08:04;;;;;;;53.17;25.70;;;;;;;-145.18;100.00;46668.22;4973050;28;20065;-71
2023/04/29 02:10:30;;;;;;;46.97;23.00;;;;;;;-145.18;100.00;46670.16;4973375;28;20271;-71
2023/04/29 02:12:55;;;;;;;46.37;24.33;;;;;;;-145.18;100.00;46672.13;4972535;28;20297;-71
2023/04/29 02:15:20;;;;;;;52.67;24.33;;;;;;;-145.18;100.00;46676.03;4972975;28;20035;-71
2023/04/29 02:17:46;;;;;;;55.70;23.53;;;;;;;-145.18;100.00;46668.22;4972661;28;20039;-71
2023/04/29 02:20:12;;;;;;;55.53;25.13;;;;;;;-145.18;100.00;46668.22;4973204;28;20046;-71
2023/04/29 02:22:38;;;;;;;58.23;25.13;;;;;;;-145.18;100.00;46668.22;4972511;28;20577;-71
2023/04/29 02:25:03;;;;;;;51.00;25.53;;;;;;;-145.18;100.00;46672.13;4972766;28;20026;-71
2023/04/29 02:27:29;;;;;;;48.33;24.20;;;;;;;-145.18;100.00;46670.16;4972666;28;20061;-71
2023/04/29 02:29:54;;;;;;;51.27;23.23;;;;;;;-145.18;100.00;46674.06;4972812;28;20437;-71
2023/04/29 02:32:19;;;;;;;49.67;22.63;;;;;;;-145.18;100.00;46670.16;4972339;28;20625;-71
2023/04/29 02:34:45;;;;;;;51.27;22.10;;;;;;;-145.18;100.00;46664.31;4971965;28;20386;-71
2023/04/29 02:37:11;;;;;;;58.40;23.73;;;;;;;-145.18;100.00;46668.22;4972777;28;20037;-71
2023/04/29 02:39:37;;;;;;;53.97;24.73;;;;;;;-145.18;100.00;46672.13;4972516;28;20042;-71
2023/04/29 02:42:02;;;;;;;49.93;23.60;;;;;;;-145.18;100.00;46666.25;4972266;28;20086;-71
2023/04/29 02:44:29;;;;;;;51.93;22.43;;;;;;;-145.18;100.00;46668.22;4972490;28;20050;-71
2023/04/29 02:46:54;;;;;;;46.17;23.50;;;;;;;-145.18;100.00;46668.22;4971829;28;20022;-71
2023/04/29 02:49:20;;;;;;;52.40;24.07;;;;;;;-145.18;100.00;46676.03;4972571;28;20288;-71
2023/04/29 02:51:48;;;;;;;42.90;22.77;;;;;;;-145.18;100.00;46668.22;4971800;28;20046;-71
2023/04/29 02:54:13;;;;;;;50.90;23.17;;;;;;;-145.18;100.00;46676.03;4954870;28;20364;-71
2023/04/29 02:56:39;;;;;;;47.73;23.20;;;;;;;-145.18;100.00;46664.31;4972217;28;20273;-71
2023/04/29 02:59:04;;;;;;;50.37;22.13;;;;;;;-145.18;100.00;46668.22;4972021;28;20038;-71
2023/04/29 03:01:30;;;;;;;49.50;21.70;;;;;;;-145.18;100.00;46672.13;4968067;28;20460;-71
2023/04/29 03:03:55;;;;;;;45.20;22.60;;;;;;;-145.18;100.00;46668.22;4952454;29;20122;-71
2023/04/29 03:06:20;;;;;;;47.37;22.43;;;;;;;-145.18;100.00;46668.22;4952829;29;20040;-71
2023/04/29 03:08:46;;;;;;;46.70;22.43;;;;;;;-145.18;100.00;46668.22;4952478;29;20050;-71
2023/04/29 03:11:11;;;;;;;42.90;21.37;;;;;;;-145.18;100.00;46666.25;4952548;29;20049;-71
2023/04/29 03:13:37;;;;;;;46.77;23.17;;;;;;;-145.18;100.00;46670.16;4952180;29;20540;-71
2023/04/29 03:16:03;;;;;;;51.30;22.27;;;;;;;-145.18;100.00;46666.25;4952581;29;20031;-71
2023/04/29 03:18:28;;;;;;;42.03;22.13;;;;;;;-145.18;100.00;46672.13;4946262;29;20304;-71
2023/04/29 03:20:54;;;;;;;40.17;21.10;;;;;;;-145.18;100.00;46668.22;4950665;29;20129;-71
2023/04/29 03:23:19;;;;;;;45.83;21.43;;;;;;;-145.18;100.00;46670.16;4951998;29;20031;-71
2023/04/29 03:25:45;;;;;;;34.00;18.30;;;;;;;-145.18;100.00;46677.97;4952378;29;20106;-72
2023/04/29 03:28:10;;;;;;;36.67;19.90;;;;;;;-145.18;100.00;46674.06;4952230;29;20066;-71
2023/04/29 03:30:36;;;;;;;37.83;17.73;;;;;;;-145.18;100.00;46679.94;4952059;29;20039;-71
2023/04/29 03:33:01;;;;;;;39.87;18.87;;;;;;;-145.18;100.00;46677.97;4952415;29;20035;-72
2023/04/29 03:35:26;;;;;;;37.47;19.27;;;;;;;-145.18;100.00;46681.88;4952534;29;20042;-71
2023/04/29 03:37:52;;;;;;;36.97;18.17;;;;;;;-145.18;100.00;46674.06;4951608;29;20058;-71
2023/04/29 03:40:17;;;;;;;42.27;19.47;;;;;;;-145.18;100.00;46676.03;4952382;29;20396;-71
2023/04/29 03:42:43;;;;;;;31.17;16.57;;;;;;;-145.18;100.00;46677.97;4952145;29;20077;-71
2023/04/29 03:45:09;;;;;;;32.20;16.17;;;;;;;-145.18;100.00;46683.84;4951677;28;20046;-71
2023/04/29 03:47:35;;;;;;;32.10;15.50;;;;;;;-145.18;100.00;46679.94;4952408;29;20035;-71
2023/04/29 03:50:00;;;;;;;32.13;16.13;;;;;;;-145.18;100.00;46677.97;4951793;29;20281;-71
2023/04/29 03:52:26;;;;;;;30.33;15.17;;;;;;;-145.18;100.00;46689.69;4934621;29;20050;-71
2023/04/29 03:54:51;;;;;;;30.53;15.60;;;;;;;-145.18;100.00;46689.69;4952117;29;20043;-71
2023/04/29 03:57:16;;;;;;;34.17;16.20;;;;;;;-145.18;100.00;46691.66;4951772;29;20118;-71
2023/04/29 03:59:42;;;;;;;30.73;15.17;;;;;;;-145.18;100.00;46683.84;4951680;29;20074;-71
2023/04/29 04:02:07;;;;;;;29.67;15.63;;;;;;;-145.18;100.00;46679.94;4954647;28;20071;-71
2023/04/29 04:04:33;;;;;;;30.57;15.53;;;;;;;-145.18;100.00;46683.84;4947273;28;20121;-71
2023/04/29 04:06:58;;;;;;;31.67;16.10;;;;;;;-145.18;100.00;46691.66;4959621;28;20039;-71
2023/04/29 04:09:23;;;;;;;35.87;15.60;;;;;;;-145.18;100.00;46685.78;4958643;28;20039;-71
2023/04/29 04:11:49;;;;;;;34.30;16.07;;;;;;;-145.18;100.00;46687.75;4910304;28;20044;-71
2023/04/29 04:14:14;;;;;;;31.50;15.87;;;;;;;-145.18;100.00;46691.66;4962381;28;20114;-71
2023/04/29 04:16:39;;;;;;;27.40;15.40;;;;;;;-145.18;100.00;46685.78;4959506;28;20028;-71
2023/04/29 04:19:05;;;;;;;28.27;14.60;;;;;;;-145.18;100.00;46691.66;4958075;28;20385;-71
2023/04/29 04:21:30;;;;;;;34.30;17.33;;;;;;;-145.18;100.00;46695.56;4944256;28;20114;-71
2023/04/29 04:23:56;;;;;;;27.17;15.93;;;;;;;-145.18;100.00;46689.69;4948134;28;20043;-71
2023/04/29 04:26:21;;;;;;;31.53;15.73;;;;;;;-145.18;100.00;46687.75;4951555;29;20028;-71
2023/04/29 04:28:47;;;;;;;30.20;15.13;;;;;;;-145.18;100.00;46687.75;4945439;29;20075;-70
2023/04/29 04:31:13;;;;;;;32.73;16.67;;;;;;;-145.18;100.00;46697.50;4945036;29;20047;-71
2023/04/29 04:33:39;;;;;;;31.10;16.00;;;;;;;-145.18;100.00;46695.56;4950667;29;20035;-71
2023/04/29 04:36:06;;;;;;;28.13;15.90;;;;;;;-145.18;100.00;46691.66;4942513;29;20034;-71
2023/04/29 04:38:31;;;;;;;35.40;16.87;;;;;;;-145.18;100.00;46685.78;4943626;29;20313;-71
2023/04/29 04:40:57;;;;;;;31.83;16.73;;;;;;;-145.18;100.00;46689.69;4947007;29;20834;-70
2023/04/29 04:43:22;;;;;;;31.50;16.63;;;;;;;-145.18;100.00;46681.88;4940016;29;20033;-70
2023/04/29 04:45:48;;;;;;;31.40;16.17;;;;;;;-145.18;100.00;46689.69;4943066;29;20038;-71
2023/04/29 04:48:13;;;;;;;35.73;16.23;;;;;;;-145.18;100.00;46689.69;4941107;29;20036;-71
2023/04/29 04:50:39;;;;;;;31.27;16.60;;;;;;;-145.18;100.00;46687.75;4950816;29;20035;-71
2023/04/29 04:53:04;;;;;;;34.40;16.00;;;;;;;-145.18;100.00;46701.41;4947711;29;20078;-71
2023/04/29 04:55:32;;;;;;;31.03;15.77;;;;;;;-145.18;100.00;46687.75;4946306;29;20031;-71
2023/04/29 04:57:57;;;;;;;31.33;16.50;;;;;;;-145.18;100.00;46699.47;4953160;28;20035;-71
2023/04/29 05:00:23;;;;;;;32.90;16.10;;;;;;;-145.18;100.00;46691.66;4955116;29;20762;-71
2023/04/29 05:02:48;;;;;;;32.63;15.83;;;;;;;-145.18;100.00;46687.75;4954498;28;20055;-71
2023/04/29 05:05:13;;;;;;;34.97;17.60;;;;;;;-145.18;100.00;46697.50;4952197;29;20506;-71
2023/04/29 05:07:39;;;;;;;37.07;17.10;;;;;;;-145.18;100.00;46689.69;4954440;29;20114;-71
2023/04/29 05:10:05;;;;;;;34.07;16.80;;;;;;;-145.18;100.00;46699.47;4954959;29;20059;-70
2023/04/29 05:12:31;;;;;;;37.37;17.23;;;;;;;-145.18;100.00;46681.88;4954773;29;20110;-71
2023/04/29 05:14:57;;;;;;;34.37;17.87;;;;;;;-145.18;100.00;46703.38;4954729;29;20844;-71
2023/04/29 05:17:22;;;;;;;37.00;16.90;;;;;;;-145.18;100.00;46699.47;4953249;29;20031;-71
2023/04/29 05:19:48;;;;;;;34.73;17.40;;;;;;;-145.18;100.00;46691.66;4940190;29;20039;-71
2023/04/29 05:22:13;;;;;;;40.00;18.10;;;;;;;-145.18;100.00;46697.50;4954597;29;20078;-71
2023/04/29 05:24:38;;;;;;;33.53;16.40;;;;;;;-145.18;100.00;46691.66;4954577;29;20404;-71
2023/04/29 05:27:04;;;;;;;36.73;18.10;;;;;;;-145.18;100.00;46693.59;4954974;29;20114;-71
2023/04/29 05:29:30;;;;;;;30.20;16.60;;;;;;;-145.18;100.00;46701.41;4954356;29;20039;-71
2023/04/29 05:31:55;;;;;;;36.17;16.67;;;;;;;-145.18;100.00;46697.50;4953965;29;20105;-72
2023/04/29 05:34:20;;;;;;;37.33;17.37;;;;;;;-145.18;100.00;46703.38;4954445;29;20042;-71
2023/04/29 05:36:46;;;;;;;37.17;18.37;;;;;;;-145.18;100.00;46699.47;4953520;29;20049;-72
2023/04/29 05:39:11;;;;;;;36.37;16.90;;;;;;;-145.18;100.00;46695.56;4954152;29;20039;-72
2023/04/29 05:41:37;;;;;;;37.60;17.37;;;;;;;-145.18;100.00;46695.56;4954089;29;20166;-72
2023/04/29 05:44:02;;;;;;;32.37;16.83;;;;;;;-145.18;100.00;46699.47;4953785;29;20046;-72
2023/04/29 05:46:27;;;;;;;37.37;18.37;;;;;;;-145.18;100.00;46689.69;4954021;29;20045;-72
2023/04/29 05:48:53;;;;;;;33.57;17.27;;;;;;;-145.18;100.00;46693.59;4953851;29;20377;-72
2023/04/29 05:51:18;;;;;;;35.83;16.70;;;;;;;-145.18;100.00;46687.75;4953963;29;20067;-72
2023/04/29 05:53:43;;;;;;;33.10;17.43;;;;;;;-145.18;100.00;46695.56;4953793;29;20039;-72
2023/04/29 05:56:09;;;;;;;44.50;18.30;;;;;;;-145.18;100.00;46689.69;4953997;29;20043;-72
2023/04/29 05:58:35;;;;;;;30.17;17.50;;;;;;;-145.18;100.00;46691.66;4953701;29;20385;-72
2023/04/29 06:01:00;;;;;;;34.67;17.37;;;;;;;-145.18;100.00;46689.69;4953723;29;20293;-71
2023/04/29 06:03:26;;;;;;;37.80;17.27;;;;;;;-145.18;100.00;46683.84;4953598;28;20102;-72
2023/04/29 06:05:52;;;;;;;34.57;16.53;;;;;;;-145.18;100.00;46681.88;4951283;29;20122;-71
2023/04/29 06:08:18;;;;;;;33.00;17.67;;;;;;;-145.18;100.00;46689.69;4942624;28;20031;-72
2023/04/29 06:10:44;;;;;;;36.10;17.50;;;;;;;-145.18;100.00;46697.50;4943012;28;20047;-72
2023/04/29 06:13:10;;;;;;;41.13;18.33;;;;;;;-145.18;100.00;46689.69;4960107;28;20584;-72
2023/04/29 06:15:36;;;;;;;38.47;18.53;;;;;;;-145.18;100.00;46687.75;4926395;29;20365;-71
2023/04/29 06:18:01;;;;;;;36.83;18.40;;;;;;;-145.18;100.00;46695.56;4948905;29;20476;-72
2023/04/29 06:20:27;;;;;;;35.50;19.17;;;;;;;-145.18;100.00;46689.69;4903274;29;20102;-71
2023/04/29 06:22:52;;;;;;;37.00;18.60;;;;;;;-145.18;100.00;46689.69;4952055;29;20050;-72
2023/04/29 06:25:18;;;;;;;36.90;18.17;;;;;;;-145.18;100.00;46685.78;4944323;29;20511;-71
2023/04/29 06:27:43;;;;;;;40.47;18.33;;;;;;;-145.18;100.00;46689.69;4952346;29;20796;-72
2023/04/29 06:30:10;;;;;;;40.23;19.70;;;;;;;-145.18;100.00;46687.75;4952552;29;20051;-71
2023/04/29 06:32:36;;;;;;;36.80;17.93;;;;;;;-145.18;100.00;46689.69;4952313;29;20126;-71
2023/04/29 06:35:01;;;;;;;33.30;18.50;;;;;;;-145.18;100.00;46679.94;4952296;29;20308;-72
2023/04/29 06:37:27;;;;;;;39.47;19.43;;;;;;;-145.18;100.00;46687.75;4952555;29;20707;-72
2023/04/29 06:39:53;;;;;;;34.90;18.83;;;;;;;-145.18;100.00;46681.88;4952212;29;20055;-72
2023/04/29 06:42:18;;;;;;;39.20;19.33;;;;;;;-145.18;100.00;46679.94;4949528;29;20039;-71
2023/04/29 06:44:43;;;;;;;36.10;18.20;;;;;;;-145.18;100.00;46679.94;4951996;29;20080;-72
2023/04/29 06:47:09;;;;;;;37.27;18.60;;;;;;;-145.18;100.00;46683.84;4951948;29;20039;-72
2023/04/29 06:49:34;;;;;;;38.23;18.23;;;;;;;-145.18;100.00;46679.94;4948520;29;20507;-72
2023/04/29 06:52:01;;;;;;;29.63;17.97;;;;;;;-145.18;100.00;46683.84;4951162;29;20385;-72
2023/04/29 06:54:27;;;;;;;39.33;18.07;;;;;;;-145.18;100.00;46685.78;4902454;29;20046;-72
2023/04/29 06:56:53;;;;;;;32.23;17.00;;;;;;;-145.18;100.00;46683.84;4951627;29;20281;-72
2023/04/29 06:59:18;;;;;;;35.30;16.53;;;;;;;-145.18;100.00;46687.75;4949629;29;20277;-72
2023/04/29 07:01:43;;;;;;;32.00;17.23;;;;;;;-145.18;100.00;46685.78;4946387;28;20385;-71
2023/04/29 07:04:09;;;;;;;32.30;16.57;;;;;;;-145.18;100.00;46687.75;4951267;29;20078;-71
2023/04/29 07:06:35;;;;;;;36.60;17.77;;;;;;;-145.18;100.00;46683.84;4951682;29;20159;-71
2023/04/29 07:09:01;;;;;;;32.40;16.63;;;;;;;-145.18;100.00;46685.78;4951160;29;20047;-72
2023/04/29 07:11:26;;;;;;;30.87;16.97;;;;;;;-145.18;100.00;46681.88;4931347;29;20408;-72
2023/04/29 07:13:52;;;;;;;37.63;17.50;;;;;;;-145.18;100.00;46685.78;4951407;29;20039;-72
2023/04/29 07:16:19;;;;;;;31.50;16.43;;;;;;;-145.18;100.00;46685.78;4951590;29;20444;-72
2023/04/29 07:18:45;;;;;;;32.10;16.40;;;;;;;-145.18;100.00;46685.78;4934296;29;20083;-72
2023/04/29 07:21:10;;;;;;;25.40;16.20;;;;;;;-145.18;100.00;46691.66;4951236;28;20277;-72
2023/04/29 07:23:35;;;;;;;36.63;14.73;;;;;;;-145.18;100.00;46691.66;4951631;29;20070;-71
2023/04/29 07:26:15;;;;;;;34.20;15.37;;;;;;;-145.18;100.00;46689.69;4951395;29;20519;-72
2023/04/29 07:28:41;;;;;;;29.13;14.90;;;;;;;-145.18;100.00;46685.78;4951407;29;20035;-72
2023/04/29 07:31:07;;;;;;;29.97;14.43;;;;;;;-145.18;100.00;46691.66;4949403;29;20385;-72
2023/04/29 07:33:34;;;;;;;28.47;14.77;;;;;;;-145.18;100.00;46687.75;4939820;29;20393;-72
2023/04/29 07:35:59;;;;;;;28.73;14.27;;;;;;;-145.18;100.00;46691.66;4950453;28;20042;-72
2023/04/29 07:38:25;;;;;;;27.47;14.80;;;;;;;-145.18;100.00;46693.59;4951114;29;20277;-72
2023/04/29 07:40:50;;;;;;;20.17;12.40;;;;;;;-145.18;100.00;46683.84;4950204;29;20039;-72
2023/04/29 07:43:16;;;;;;;22.10;12.33;;;;;;;-145.18;100.00;46670.16;4949552;28;20138;-71
2023/04/29 07:45:41;;;;;;;24.90;11.90;;;;;;;-145.18;100.00;46617.41;4953940;28;20074;-72
2023/04/29 07:48:07;;;;;;;21.73;11.43;;;;;;;-145.18;100.00;46586.16;4956382;28;20039;-71
2023/04/29 07:50:35;;;;;;;25.73;11.20;;;;;;;-145.18;100.00;46574.44;4931035;29;20036;-72
2023/04/29 07:53:01;;;;;;;20.77;12.00;;;;;;;-145.18;100.00;46566.63;4941621;29;20085;-72
2023/04/29 07:55:28;;;;;;;30.77;12.63;;;;;;;-145.18;100.00;46574.44;4950501;29;20039;-72
2023/04/29 07:57:54;;;;;;;26.53;12.27;;;;;;;-145.18;100.00;46566.63;4950612;29;20035;-71
2023/04/29 08:00:20;;;;;;;22.07;11.10;;;;;;;-145.18;100.00;46578.34;4953562;28;20485;-71
2023/04/29 08:02:49;;;;;;;34.13;12.73;;;;;;;-145.18;100.00;46588.13;4949293;28;20047;-71
2023/04/29 08:05:14;;;;;;;64.97;16.17;;;;;;;-145.18;100.00;46582.25;4949859;29;20039;-72
2023/04/29 08:07:40;;;;;;;52.90;16.00;;;;;;;-145.18;100.00;46584.22;4948194;29;20664;-72
2023/04/29 08:10:06;;;;;;;31.10;11.53;;;;;;;-145.18;100.00;46592.03;4912575;29;20055;-72
2023/04/29 08:12:31;;;;;;;30.67;11.27;;;;;;;-145.18;100.00;46603.75;4900816;29;20138;-71
2023/04/29 08:14:57;;;;;;;22.90;10.00;;;;;;;-145.18;100.00;46611.56;4884050;29;20122;-72
2023/04/29 08:17:22;;;;;;;34.50;12.30;;;;;;;-145.18;100.00;46615.47;4934246;29;20040;-71
2023/04/29 08:19:48;;;;;;;27.93;10.53;;;;;;;-145.18;100.00;46623.28;4951092;29;20043;-72
2023/04/29 08:22:13;;;;;;;22.03;11.47;;;;;;;-145.18;100.00;46625.22;4951455;29;20051;-72
2023/04/29 08:24:40;;;;;;;25.60;12.43;;;;;;;-145.18;100.00;46623.28;4950812;29;20043;-72
2023/04/29 08:27:05;;;;;;;31.50;12.10;;;;;;;-145.18;100.00;46623.28;4951520;29;20038;-72
2023/04/29 08:29:33;;;;;;;21.33;11.23;;;;;;;-145.18;100.00;46617.41;4951003;28;20043;-72
2023/04/29 08:31:59;;;;;;;24.13;12.27;;;;;;;-145.18;100.00;46625.22;4952507;28;20233;-71
2023/04/29 08:34:25;;;;;;;24.90;10.30;;;;;;;-145.18;100.00;46636.94;4937645;29;20095;-71
2023/04/29 08:36:51;;;;;;;23.60;11.33;;;;;;;-145.18;100.00;46619.38;4954859;29;20031;-71
2023/04/29 08:39:16;;;;;;;16.57;10.17;;;;;;;-145.18;100.00;46627.19;4950852;29;20126;-71
2023/04/29 08:41:44;;;;;;;18.47;10.63;;;;;;;-145.18;100.00;46619.38;4954573;28;20439;-71
2023/04/29 08:44:09;;;;;;;17.57;9.97;;;;;;;-145.18;100.00;46627.19;4954658;29;20047;-71
2023/04/29 08:46:35;;;;;;;22.03;11.23;;;;;;;-145.18;100.00;46623.28;4953134;29;20039;-71
2023/04/29 08:49:03;;;;;;;20.33;9.67;;;;;;;-145.18;100.00;46619.38;4954365;29;20042;-71
2023/04/29 08:51:30;;;;;;;19.53;9.73;;;;;;;-145.18;100.00;46617.41;4954444;29;20031;-71
2023/04/29 08:53:56;;;;;;;17.90;9.73;;;;;;;-145.18;100.00;46617.41;4954204;29;20399;-71
2023/04/29 08:56:22;;;;;;;18.90;10.80;;;;;;;-145.18;100.00;46627.19;4954967;29;20054;-71
2023/04/29 08:58:57;;;;;;;17.70;9.27;;;;;;;-145.18;100.00;46623.28;4954022;28;20050;-71
2023/04/29 09:01:23;;;;;;;14.55;8.20;;;;;;;-145.18;100.00;46640.88;4953868;28;20698;-71
2023/04/29 09:04:15;;;;;;;16.20;7.93;;;;;;;-145.18;100.00;46656.50;4953635;29;20055;-71
2023/04/29 09:06:41;;;;;;;17.63;8.33;;;;;;;-145.18;100.00;46652.59;4954360;29;20031;-72
2023/04/29 09:09:07;;;;;;;15.13;8.73;;;;;;;-145.18;100.00;46656.50;4933876;29;20505;-71
2023/04/29 09:11:33;;;;;;;14.67;7.87;;;;;;;-145.18;100.00;46668.22;4953893;29;20039;-71
2023/04/29 09:14:00;;;;;;;18.37;7.17;;;;;;;-145.18;100.00;46767.84;4953751;29;20086;-72
2023/04/29 09:16:26;;;;;;;18.67;7.70;;;;;;;-145.18;100.00;46777.59;4954504;29;20488;-71
2023/04/29 09:18:53;;;;;;;16.07;8.17;;;;;;;-145.18;100.00;46773.69;4953746;29;20035;-71
2023/04/29 09:21:24;;;;;;;13.47;7.77;;;;;;;-145.18;100.00;46752.19;4954073;29;20066;-71
2023/04/29 09:23:52;;;;;;;12.57;7.37;;;;;;;-145.18;100.00;46754.16;4953809;29;20035;-71
2023/04/29 09:26:18;;;;;;;16.07;7.43;;;;;;;-145.18;100.00;46806.91;4954253;29;20023;-71
2023/04/29 09:28:44;;;;;;;17.50;7.67;;;;;;;-145.18;100.00;46771.75;4953110;29;20404;-71
2023/04/29 09:31:10;;;;;;;16.87;8.50;;;;;;;-145.18;100.00;46803.00;4953697;29;20083;-71
2023/04/29 09:33:53;;;;;;;16.97;8.70;;;;;;;-145.18;100.00;46816.66;4953474;29;20445;-71
2023/04/29 09:36:39;;;;;;;10.83;7.03;;;;;;;-145.18;100.00;47055.00;4954248;29;20057;-71
2023/04/29 09:39:12;;;;;;;11.80;7.20;;;;;;;-145.18;100.00;47369.53;4953344;29;20086;-71
2023/04/29 09:41:42;;;;;;;14.47;7.40;;;;;;;-145.18;100.00;47389.06;4954004;29;20114;-71
2023/04/29 09:44:09;;;;;;;13.43;6.97;;;;;;;-145.18;100.00;47465.25;4952500;28;20031;-71
2023/04/29 09:46:36;;;;;;;12.93;7.60;;;;;;;-145.18;100.00;47295.28;4954116;29;20381;-70
2023/04/29 09:49:03;;;;;;;13.37;5.50;;;;;;;-145.18;100.00;47449.63;4952963;29;20418;-70
2023/04/29 09:51:31;;;;;;;11.63;5.50;;;;;;;-145.18;100.00;47490.66;4953273;29;20106;-70
2023/04/29 09:53:58;;;;;;;9.47;5.77;;;;;;;-145.18;100.00;47482.84;4953523;29;20043;-71
2023/04/29 09:56:27;;;;;;;8.07;5.37;;;;;;;-145.18;100.00;47463.31;4952527;29;20424;-71
2023/04/29 09:58:53;;;;;;;10.83;5.73;;;;;;;-145.18;100.00;47443.75;4953052;29;20039;-71
2023/04/29 10:01:21;;;;;;;12.83;6.70;;;;;;;-145.18;100.00;47478.94;4953169;28;20032;-70
2023/04/29 10:03:47;;;;;;;9.97;6.13;;;;;;;-145.18;100.00;47469.16;4952849;29;20039;-70
2023/04/29 10:06:15;;;;;;;11.73;7.13;;;;;;;-145.18;100.00;47379.28;4949161;29;20412;-70
2023/04/29 10:08:43;;;;;;;12.07;6.33;;;;;;;-145.18;100.00;47418.38;4942081;29;20043;-70
2023/04/29 10:11:10;;;;;;;10.90;6.43;;;;;;;-145.18;100.00;47379.28;4953027;29;20181;-70
2023/04/29 10:13:41;;;;;;;10.37;5.60;;;;;;;-145.18;100.00;47348.03;4952810;29;20035;-70
2023/04/29 10:16:25;;;;;;;7.80;4.97;;;;;;;-145.18;100.00;47324.59;4953239;29;20106;-70
2023/04/29 10:18:55;;;;;;;8.63;5.00;;;;;;;-145.18;100.00;47344.13;4935441;29;20046;-70
2023/04/29 10:21:28;;;;;;;11.60;6.27;;;;;;;-145.18;100.00;47342.16;4953077;29;20054;-70
2023/04/29 10:23:56;;;;;;;12.50;6.07;;;;;;;-145.18;100.00;47308.97;4951784;29;20028;-70
2023/04/29 10:26:25;;;;;;;11.60;5.90;;;;;;;-145.18;100.00;47346.06;4935560;29;20057;-70
2023/04/29 10:28:56;;;;;;;10.33;5.50;;;;;;;-145.18;100.00;47359.75;4952503;29;20031;-70
2023/04/29 10:31:25;;;;;;;9.27;5.73;;;;;;;-145.18;100.00;47322.63;4952879;29;21971;-69
2023/04/29 10:33:54;;;;;;;10.80;5.60;;;;;;;-145.18;100.00;47349.97;4952659;29;20031;-70
2023/04/29 10:36:20;;;;;;;10.40;4.93;;;;;;;-145.18;100.00;47340.22;4952405;29;20039;-69
2023/04/29 10:38:51;;;;;;;10.37;5.40;;;;;;;-145.18;100.00;47349.97;4952386;29;20443;-69
2023/04/29 10:41:25;;;;;;;8.50;4.83;;;;;;;-145.18;100.00;47349.97;4951406;29;20485;-69
2023/04/29 10:43:52;;;;;;;8.70;4.83;;;;;;;-145.18;100.00;47365.63;4950492;29;20035;-69
2023/04/29 10:46:18;;;;;;;8.50;4.90;;;;;;;-145.18;100.00;47361.72;4952216;29;20054;-70
2023/04/29 10:48:48;;;;;;;8.83;5.33;;;;;;;-145.18;100.00;47332.41;4951511;29;20035;-69
2023/04/29 10:51:31;;;;;;;12.87;6.80;;;;;;;-145.18;100.00;47307.00;4952124;29;20027;-70
2023/04/29 10:54:11;;;;;;;8.97;4.97;;;;;;;-145.18;100.00;47283.56;4955392;28;20058;-69
2023/04/29 10:56:48;;;;;;;8.20;5.10;;;;;;;-145.18;100.00;47293.31;4953979;28;20035;-69
2023/04/29 10:59:16;;;;;;;6.87;4.20;;;;;;;-145.18;100.00;47260.13;4950160;29;20031;-69